GEX weather

Geelong Airport
Victoria, Australia

Public forecast

Using degrees Celsius for public forecast. Weather courtesy of forecast.io.

METAR (pilot weather report)

Closest report is Avalon Airport, 12.9 nm (23.8 km) NNE. Retrieved 2019/03/19 18:30 UTC (5 minutes ago):

YMAV 191830Z AUTO 19009KT 8000 // OVC003 19/19 Q1014 RF00.0/000.0

TAF (pilot weather forecast)

Forecast is more than 12 hours old.

Closest forecast is Avalon Airport, 12.9 nm (23.8 km) NNE. Retrieved 2019/03/18 12:00 UTC (1 day ago):

TAF YMAV 181130Z 1812/1912 14012KT 9999 BKN015 FM181500 14010KT 9999 -DZ BKN010 BECMG 1900/1902 16013KT 9999 -SHRA SCT012 BKN018 TEMPO 1815/1824 4000 -DZ BKN006 INTER 1900/1912 8000 -SHRA BKN010